Time;durP1;ratioP1;P1;durP2;ratioP2;P2;SDS_P1;SDS_P2;PMS_P1;PMS_P2;Temp;Humidity;BMP_temperature;BMP_pressure;BME280_temperature;BME280_humidity;BME280_pressure;Samples;Min_cycle;Max_cycle;Signal;HPM_P1;HPM_P2
2021/08/19 00:01:39;;;;;;;;;;;27.00;95.20;;;;;;1934060;73;20176;-91
2021/08/19 00:04:09;;;;;;;;;;;27.00;95.20;;;;;;1947377;74;20124;-91
2021/08/19 00:06:38;;;;;;;;;;;27.10;95.20;;;;;;1938123;73;20163;-89
2021/08/19 00:09:08;;;;;;;;;;;27.10;95.20;;;;;;1938270;74;20221;-91
2021/08/19 00:11:38;;;;;;;;;;;27.10;95.00;;;;;;1902009;75;20111;-90
2021/08/19 00:14:08;;;;;;;;;;;27.10;95.10;;;;;;1944784;73;20210;-90
2021/08/19 00:16:37;;;;;;;;;;;27.20;95.00;;;;;;1949562;72;20130;-90
2021/08/19 00:19:07;;;;;;;;;;;27.20;95.00;;;;;;1942255;73;20128;-90
2021/08/19 00:21:36;;;;;;;;;;;27.20;95.00;;;;;;1940840;73;20159;-92
2021/08/19 00:24:06;;;;;;;;;;;27.30;95.10;;;;;;1881984;75;20220;-91
2021/08/19 00:26:36;;;;;;;;;;;27.40;95.20;;;;;;1907880;74;20146;-90
2021/08/19 00:29:05;;;;;;;;;;;27.30;95.10;;;;;;1907281;73;20227;-90
2021/08/19 00:31:35;;;;;;;;;;;27.40;95.10;;;;;;1905089;74;20242;-88
2021/08/19 00:34:05;;;;;;;;;;;27.40;95.10;;;;;;1906935;74;20171;-90
2021/08/19 00:36:35;;;;;;;;;;;27.50;94.90;;;;;;1907998;73;20284;-90
2021/08/19 00:39:08;;;;;;;;;;;27.50;94.90;;;;;;1915116;74;20254;-90
2021/08/19 00:41:38;;;;;;;;;;;27.60;95.00;;;;;;1904061;74;20191;-90
2021/08/19 00:44:08;;;;;;;;;;;27.70;94.90;;;;;;1910551;73;20244;-90
2021/08/19 00:46:38;;;;;;;;;;;27.70;94.80;;;;;;1914404;73;20197;-91
2021/08/19 00:49:09;;;;;;;;;;;27.60;94.60;;;;;;1911055;74;20262;-90
2021/08/19 00:51:40;;;;;;;;;;;27.60;94.70;;;;;;1898644;75;20130;-90
2021/08/19 00:54:11;;;;;;;;;;;27.70;94.70;;;;;;1936067;73;20198;-90
2021/08/19 00:56:41;;;;;;;;;;;27.70;94.60;;;;;;1929927;73;20198;-90
2021/08/19 00:59:11;;;;;;;;;;;27.80;94.60;;;;;;1897445;74;20193;-92
2021/08/19 01:01:41;;;;;;;;;;;27.80;94.50;;;;;;1891258;74;20166;-89
2021/08/19 01:04:19;;;;;;;;;;;27.90;94.30;;;;;;1901873;74;20207;-90
2021/08/19 01:06:51;;;;;;;;;;;27.90;94.10;;;;;;1907813;74;20233;-90
2021/08/19 01:09:46;;;;;;;;;;;28.00;94.20;;;;;;1922208;73;20194;-91
2021/08/19 01:12:14;;;;;;;;;;;28.00;94.20;;;;;;1883563;75;20194;-90
2021/08/19 01:14:48;;;;;;;;;;;28.10;94.20;;;;;;1916742;74;20283;-90
2021/08/19 01:17:20;;;;;;;;;;;28.20;93.90;;;;;;1916200;74;20264;-90
2021/08/19 01:19:53;;;;;;;;;;;28.20;93.80;;;;;;1920942;73;20273;-90
2021/08/19 01:22:27;;;;;;;;;;;28.30;93.60;;;;;;1920724;75;20142;-90
2021/08/19 01:24:57;;;;;;;;;;;28.30;93.60;;;;;;1882571;75;20203;-90
2021/08/19 01:27:46;;;;;;;;;;;28.40;93.50;;;;;;1906533;74;20326;-89
2021/08/19 01:30:15;;;;;;;;;;;28.50;93.20;;;;;;1906886;74;20905;-89
2021/08/19 01:32:45;;;;;;;;;;;28.60;93.30;;;;;;1908195;73;20197;-89
2021/08/19 01:35:16;;;;;;;;;;;28.70;93.20;;;;;;1910999;73;20221;-89
2021/08/19 01:37:45;;;;;;;;;;;28.80;92.90;;;;;;1899870;75;20234;-90
2021/08/19 01:40:15;;;;;;;;;;;28.80;92.60;;;;;;1900261;74;20254;-90
2021/08/19 01:42:50;;;;;;;;;;;28.90;92.80;;;;;;1889748;74;20267;-90
2021/08/19 01:45:23;;;;;;;;;;;29.00;92.50;;;;;;1916069;74;20455;-90
2021/08/19 01:47:51;;;;;;;;;;;29.10;92.50;;;;;;1887495;74;20625;-89
2021/08/19 01:50:23;;;;;;;;;;;29.20;92.40;;;;;;1873696;75;20184;-90
2021/08/19 01:52:57;;;;;;;;;;;29.30;92.00;;;;;;1911440;74;20208;-90
2021/08/19 01:55:32;;;;;;;;;;;29.40;92.10;;;;;;1899685;74;20139;-90
2021/08/19 01:57:58;;;;;;;;;;;29.50;91.80;;;;;;1885722;74;20191;-91
2021/08/19 02:00:30;;;;;;;;;;;29.70;91.40;;;;;;1887565;74;20159;-90
2021/08/19 02:03:01;;;;;;;;;;;29.80;91.50;;;;;;1884990;75;20120;-90
2021/08/19 02:05:31;;;;;;;;;;;29.90;90.90;;;;;;1881743;74;20187;-89
2021/08/19 02:08:04;;;;;;;;;;;30.10;90.70;;;;;;1891772;73;20265;-93
2021/08/19 02:10:37;;;;;;;;;;;30.10;90.90;;;;;;1879799;75;20228;-90
2021/08/19 02:13:11;;;;;;;;;;;30.20;90.90;;;;;;1954276;71;20288;-90
2021/08/19 02:16:09;;;;;;;;;;;30.30;90.20;;;;;;1969361;73;20529;-90
2021/08/19 02:18:40;;;;;;;;;;;30.40;89.90;;;;;;1934806;73;20501;-89
2021/08/19 02:21:10;;;;;;;;;;;30.50;89.70;;;;;;1963467;73;20171;-88
2021/08/19 02:23:59;;;;;;;;;;;30.60;89.60;;;;;;1965472;71;20232;-88
2021/08/19 02:26:40;;;;;;;;;;;30.70;89.70;;;;;;1942859;73;20176;-90
2021/08/19 02:29:10;;;;;;;;;;;30.80;88.90;;;;;;1937501;73;20546;-90
2021/08/19 02:31:45;;;;;;;;;;;30.80;88.80;;;;;;1939534;74;20207;-89
2021/08/19 02:34:14;;;;;;;;;;;30.90;88.60;;;;;;1968244;73;20276;-91
2021/08/19 02:36:45;;;;;;;;;;;31.00;88.30;;;;;;1936471;73;20206;-91
2021/08/19 02:39:22;;;;;;;;;;;31.10;89.00;;;;;;1950798;73;20258;-92
2021/08/19 02:41:58;;;;;;;;;;;31.20;88.00;;;;;;1935825;73;20173;-93
2021/08/19 02:44:49;;;;;;;;;;;31.30;87.40;;;;;;1929259;73;20755;-92
2021/08/19 02:47:20;;;;;;;;;;;31.40;87.10;;;;;;1939848;73;20459;-92
2021/08/19 02:49:53;;;;;;;;;;;31.50;86.30;;;;;;1949674;73;20129;-92
2021/08/19 02:52:24;;;;;;;;;;;;;;;;;;1908978;73;20242;-92
2021/08/19 02:55:05;;;;;;;;;;;31.60;84.90;;;;;;1904907;75;20172;-92
2021/08/19 02:57:44;;;;;;;;;;;31.60;84.90;;;;;;1858081;77;20484;-92
2021/08/19 03:00:16;;;;;;;;;;;31.70;84.70;;;;;;1886086;74;20198;-91
2021/08/19 03:02:52;;;;;;;;;;;31.90;84.80;;;;;;1890279;74;20221;-92
2021/08/19 03:05:25;;;;;;;;;;;31.90;82.40;;;;;;1867189;76;20257;-91
2021/08/19 03:08:04;;;;;;;;;;;32.10;82.90;;;;;;1887444;74;20183;-91
2021/08/19 03:11:02;;;;;;;;;;;;;;;;;;;;;
2021/08/19 03:13:34;;;;;;;;;;;32.30;82.50;;;;;;1869391;75;20184;-91
2021/08/19 03:15:57;;;;;;;;;;;32.40;80.70;;;;;;1840099;75;20516;-92
2021/08/19 03:18:31;;;;;;;;;;;32.50;80.20;;;;;;1893137;76;20800;-91
2021/08/19 03:21:17;;;;;;;;;;;32.50;80.70;;;;;;1875212;75;20197;-93
2021/08/19 03:23:48;;;;;;;;;;;32.60;80.80;;;;;;1867353;75;20219;-92
2021/08/19 03:26:26;;;;;;;;;;;32.80;80.70;;;;;;1884756;75;20247;-93
2021/08/19 03:29:04;;;;;;;;;;;32.90;79.90;;;;;;1865872;75;20211;-91
2021/08/19 03:31:31;;;;;;;;;;;32.90;79.10;;;;;;1864639;76;20199;-90
2021/08/19 03:34:09;;;;;;;;;;;33.10;78.90;;;;;;1861614;75;20230;-90
2021/08/19 03:36:42;;;;;;;;;;;33.10;77.50;;;;;;1906781;73;20156;-90
2021/08/19 03:39:15;;;;;;;;;;;33.10;77.60;;;;;;1933592;73;20158;-89
2021/08/19 03:41:48;;;;;;;;;;;33.20;77.90;;;;;;1922553;73;20173;-90
2021/08/19 03:44:29;;;;;;;;;;;33.20;75.80;;;;;;1913880;73;20227;-90
2021/08/19 03:47:34;;;;;;;;;;;33.30;77.50;;;;;;1917033;74;20127;-91
2021/08/19 03:49:38;;;;;;;;;;;33.40;78.00;;;;;;1902164;73;20153;-92
2021/08/19 03:52:39;;;;;;;;;;;33.50;75.80;;;;;;1919984;73;20525;-91
2021/08/19 03:55:14;;;;;;;;;;;33.60;76.60;;;;;;1892111;74;20182;-92
2021/08/19 03:57:47;;;;;;;;;;;33.60;74.40;;;;;;1928752;73;20462;-92
2021/08/19 04:00:23;;;;;;;;;;;33.70;75.00;;;;;;1922521;73;20186;-89
2021/08/19 04:03:08;;;;;;;;;;;33.70;72.40;;;;;;1886759;73;20204;-90
2021/08/19 04:05:46;;;;;;;;;;;33.70;71.90;;;;;;1928797;73;20221;-90
2021/08/19 04:08:20;;;;;;;;;;;33.70;73.70;;;;;;1947835;72;20206;-92
2021/08/19 04:10:52;;;;;;;;;;;33.80;73.10;;;;;;1948653;72;20124;-90
2021/08/19 04:13:37;;;;;;;;;;;33.80;73.70;;;;;;1904772;74;20198;-92
2021/08/19 04:16:24;;;;;;;;;;;33.90;73.00;;;;;;1955140;73;20182;-91
2021/08/19 04:19:09;;;;;;;;;;;34.10;70.10;;;;;;1928701;73;20176;-91
2021/08/19 04:21:58;;;;;;;;;;;34.10;70.30;;;;;;1962925;72;20174;-92
2021/08/19 04:24:44;;;;;;;;;;;;;;;;;;;;;
2021/08/19 04:27:17;;;;;;;;;;;;;;;;;;;;;
2021/08/19 04:29:59;;;;;;;;;;;34.10;69.90;;;;;;1924107;73;20223;-90
2021/08/19 04:32:56;;;;;;;;;;;;;;;;;;;;;
2021/08/19 04:35:40;;;;;;;;;;;;;;;;;;;;;
2021/08/19 04:38:34;;;;;;;;;;;33.70;71.10;;;;;;1890505;74;20170;-91
2021/08/19 04:41:15;;;;;;;;;;;33.50;71.20;;;;;;1768258;80;20274;-90
2021/08/19 04:43:55;;;;;;;;;;;33.30;72.70;;;;;;1806185;75;20221;-88
2021/08/19 04:46:23;;;;;;;;;;;33.20;69.50;;;;;;1874301;75;20131;-90
2021/08/19 04:48:59;;;;;;;;;;;33.30;69.30;;;;;;1900856;74;20501;-88
2021/08/19 04:51:27;;;;;;;;;;;33.40;70.80;;;;;;1906112;74;20456;-90
2021/08/19 04:53:58;;;;;;;;;;;33.60;71.80;;;;;;1897682;75;20564;-91
2021/08/19 04:56:36;;;;;;;;;;;33.50;70.60;;;;;;1843962;77;20220;-93
2021/08/19 04:59:01;;;;;;;;;;;33.30;71.90;;;;;;1878379;75;20523;-91
2021/08/19 05:01:33;;;;;;;;;;;33.10;73.30;;;;;;1907786;74;20564;-92
2021/08/19 05:04:08;;;;;;;;;;;33.00;74.70;;;;;;1863912;77;20233;-90
2021/08/19 05:06:43;;;;;;;;;;;32.80;75.60;;;;;;1851984;75;20509;-90
2021/08/19 05:09:13;;;;;;;;;;;32.90;76.10;;;;;;1863216;77;20252;-89
2021/08/19 05:11:46;;;;;;;;;;;33.00;75.40;;;;;;1916568;73;20464;-90
2021/08/19 05:14:23;;;;;;;;;;;33.20;74.10;;;;;;1923239;73;20353;-91
2021/08/19 05:16:53;;;;;;;;;;;33.30;74.80;;;;;;1926093;74;20236;-91
2021/08/19 05:19:28;;;;;;;;;;;33.50;72.90;;;;;;1937982;74;20191;-89
2021/08/19 05:21:59;;;;;;;;;;;33.60;74.40;;;;;;1920415;74;20558;-90
2021/08/19 05:24:38;;;;;;;;;;;33.90;72.80;;;;;;1913250;74;20179;-94
2021/08/19 05:27:11;;;;;;;;;;;34.20;71.00;;;;;;1931538;74;20176;-91
2021/08/19 05:29:43;;;;;;;;;;;34.30;70.50;;;;;;1943922;73;20149;-91
2021/08/19 05:32:20;;;;;;;;;;;34.40;70.20;;;;;;1945740;73;20215;-91
2021/08/19 05:34:56;;;;;;;;;;;34.50;70.90;;;;;;1892346;74;20192;-90
2021/08/19 05:37:26;;;;;;;;;;;34.50;67.70;;;;;;1936214;74;20475;-91
2021/08/19 05:39:57;;;;;;;;;;;34.50;68.60;;;;;;1931926;74;20508;-91
2021/08/19 05:42:29;;;;;;;;;;;34.50;70.30;;;;;;1947510;73;20170;-91
2021/08/19 05:45:10;;;;;;;;;;;34.60;69.30;;;;;;1936948;73;20146;-92
2021/08/19 05:47:40;;;;;;;;;;;34.70;69.00;;;;;;1908002;74;20163;-91
2021/08/19 05:50:17;;;;;;;;;;;34.50;69.50;;;;;;1933509;74;20433;-89
2021/08/19 05:52:47;;;;;;;;;;;34.40;68.30;;;;;;1930408;74;20837;-91
2021/08/19 05:55:22;;;;;;;;;;;34.30;67.50;;;;;;1949628;73;20247;-90
2021/08/19 05:58:02;;;;;;;;;;;34.40;67.70;;;;;;1931620;74;20144;-91
2021/08/19 06:00:36;;;;;;;;;;;34.40;68.40;;;;;;1949816;73;20296;-90
2021/08/19 06:03:14;;;;;;;;;;;34.50;69.20;;;;;;1938644;74;20211;-91
2021/08/19 06:05:42;;;;;;;;;;;34.50;67.60;;;;;;1956914;73;20557;-93
2021/08/19 06:08:13;;;;;;;;;;;34.40;67.70;;;;;;1941703;73;20198;-90
2021/08/19 06:10:51;;;;;;;;;;;34.20;68.10;;;;;;1941167;73;20268;-91
2021/08/19 06:13:26;;;;;;;;;;;34.10;68.90;;;;;;1908519;74;20463;-91
2021/08/19 06:16:03;;;;;;;;;;;33.90;69.80;;;;;;1883021;74;20151;-90
2021/08/19 06:18:45;;;;;;;;;;;33.90;71.40;;;;;;1916575;74;20187;-91
2021/08/19 06:21:15;;;;;;;;;;;34.00;69.90;;;;;;1899977;75;20179;-91
2021/08/19 06:23:43;;;;;;;;;;;34.10;69.40;;;;;;1891943;74;20179;-91
2021/08/19 06:26:18;;;;;;;;;;;34.00;69.80;;;;;;1892168;75;20195;-92
2021/08/19 06:28:46;;;;;;;;;;;34.00;70.20;;;;;;1938529;74;20175;-91
2021/08/19 06:31:18;;;;;;;;;;;33.90;69.40;;;;;;1902651;73;20133;-90
2021/08/19 06:33:58;;;;;;;;;;;33.90;72.50;;;;;;1898668;74;20234;-91
2021/08/19 06:36:39;;;;;;;;;;;34.00;67.60;;;;;;1879487;74;20214;-90
2021/08/19 06:39:11;;;;;;;;;;;34.00;68.60;;;;;;1889839;74;20190;-91
2021/08/19 06:41:42;;;;;;;;;;;33.90;69.20;;;;;;1900890;74;20211;-90
2021/08/19 06:44:14;;;;;;;;;;;33.90;69.60;;;;;;1892977;74;20169;-91
2021/08/19 06:47:09;;;;;;;;;;;;;;;;;;;;;
2021/08/19 06:50:01;;;;;;;;;;;;;;;;;;;;;
2021/08/19 06:52:31;;;;;;;;;;;34.20;67.40;;;;;;1914843;75;20228;-91
2021/08/19 06:54:59;;;;;;;;;;;34.30;66.00;;;;;;1872475;74;20216;-92
2021/08/19 06:57:31;;;;;;;;;;;34.40;66.50;;;;;;1914183;74;20160;-90
2021/08/19 07:00:04;;;;;;;;;;;34.40;69.50;;;;;;1915600;74;20154;-90
2021/08/19 07:02:34;;;;;;;;;;;34.40;65.70;;;;;;1891457;74;20200;-89
2021/08/19 07:05:15;;;;;;;;;;;34.40;65.50;;;;;;1875746;75;20197;-90
2021/08/19 07:07:59;;;;;;;;;;;34.50;66.20;;;;;;1868906;75;20169;-90
2021/08/19 07:10:44;;;;;;;;;;;34.50;65.90;;;;;;1852402;75;20597;-90
2021/08/19 07:13:31;;;;;;;;;;;34.40;64.80;;;;;;1923372;73;20188;-90
2021/08/19 07:16:23;;;;;;;;;;;34.50;64.40;;;;;;1923094;73;20306;-90
2021/08/19 07:19:23;;;;;;;;;;;34.50;64.00;;;;;;1789258;78;20223;-92
2021/08/19 07:22:45;;;;;;;;;;;34.50;64.80;;;;;;1812989;78;20246;-90
2021/08/19 07:28:16;;;;;;;;;;;;;;;;;;;;;
2021/08/19 07:30:47;;;;;;;;;;;34.50;62.50;;;;;;1819192;76;20207;-92
2021/08/19 07:33:21;;;;;;;;;;;34.50;63.20;;;;;;1747286;79;20285;-92
2021/08/19 07:39:04;;;;;;;;;;;;;;;;;;;;;
2021/08/19 07:54:47;;;;;;;;;;;34.70;63.60;;;;;;1987375;70;20170;-89
2021/08/19 07:57:20;;;;;;;;;;;34.60;61.20;;;;;;1928148;73;20154;-92
2021/08/19 07:59:50;;;;;;;;;;;34.60;61.50;;;;;;1877334;75;20175;-90
2021/08/19 08:02:21;;;;;;;;;;;34.60;59.50;;;;;;1922477;74;20144;-90
2021/08/19 08:04:55;;;;;;;;;;;34.60;59.60;;;;;;1923531;73;20183;-89
2021/08/19 08:07:25;;;;;;;;;;;34.50;59.10;;;;;;1907584;73;20146;-88
2021/08/19 08:09:58;;;;;;;;;;;34.50;60.20;;;;;;1891584;74;20201;-89
2021/08/19 08:12:51;;;;;;;;;;;34.50;58.40;;;;;;1890355;74;20230;-92
2021/08/19 08:15:18;;;;;;;;;;;34.50;59.70;;;;;;1889470;75;20181;-91
2021/08/19 08:17:49;;;;;;;;;;;34.40;58.00;;;;;;1900385;75;20432;-92
2021/08/19 08:20:19;;;;;;;;;;;34.40;58.80;;;;;;1896262;75;20172;-92
2021/08/19 08:22:50;;;;;;;;;;;34.30;58.60;;;;;;1920763;75;20371;-89
2021/08/19 08:25:21;;;;;;;;;;;34.20;59.70;;;;;;1908561;73;20269;-92
2021/08/19 08:27:53;;;;;;;;;;;34.20;58.80;;;;;;1920721;75;20459;-91
2021/08/19 08:30:23;;;;;;;;;;;34.20;59.70;;;;;;1918769;75;20208;-89
2021/08/19 08:32:53;;;;;;;;;;;34.10;60.90;;;;;;1921253;75;20151;-91
2021/08/19 08:35:24;;;;;;;;;;;34.10;59.30;;;;;;1914215;74;20153;-91
2021/08/19 08:37:54;;;;;;;;;;;34.10;61.60;;;;;;1912525;75;20171;-90
2021/08/19 08:40:24;;;;;;;;;;;34.20;67.40;;;;;;1905163;75;20175;-88
2021/08/19 08:42:54;;;;;;;;;;;34.20;69.20;;;;;;1914019;75;20150;-90
2021/08/19 08:45:34;;;;;;;;;;;;;;;;;;;;;
2021/08/19 08:48:06;;;;;;;;;;;34.10;69.70;;;;;;1921798;74;20124;-91
2021/08/19 08:50:36;;;;;;;;;;;34.10;71.20;;;;;;1922306;75;20148;-92
2021/08/19 09:15:29;;;;;;;;;;;33.60;75.80;;;;;;1818786;73;20945;-91
2021/08/19 09:18:02;;;;;;;;;;;33.50;75.70;;;;;;1807759;78;20213;-91
2021/08/19 09:20:33;;;;;;;;;;;33.50;75.80;;;;;;1808967;79;20193;-93
2021/08/19 09:23:05;;;;;;;;;;;33.50;76.10;;;;;;1809167;78;20217;-91
2021/08/19 09:25:36;;;;;;;;;;;33.50;76.40;;;;;;1808794;78;20185;-92
2021/08/19 09:28:07;;;;;;;;;;;33.50;76.60;;;;;;1808411;78;20262;-93
2021/08/19 09:30:37;;;;;;;;;;;33.50;77.30;;;;;;1803242;79;20169;-93
2021/08/19 09:33:08;;;;;;;;;;;33.50;77.40;;;;;;1811650;78;20149;-91
2021/08/19 09:35:40;;;;;;;;;;;33.50;77.00;;;;;;1827515;78;20195;-93
2021/08/19 09:38:12;;;;;;;;;;;33.50;77.50;;;;;;1831643;78;20882;-91
2021/08/19 09:41:01;;;;;;;;;;;33.50;77.60;;;;;;1810900;77;20165;-91
2021/08/19 09:43:32;;;;;;;;;;;33.40;77.70;;;;;;1809910;77;20209;-92
2021/08/19 09:46:04;;;;;;;;;;;33.40;77.40;;;;;;1831726;78;20199;-91
2021/08/19 09:48:34;;;;;;;;;;;33.40;77.50;;;;;;1845446;77;20191;-91
2021/08/19 09:51:05;;;;;;;;;;;33.30;77.60;;;;;;1833941;77;20098;-92
2021/08/19 09:53:36;;;;;;;;;;;33.40;77.70;;;;;;1839097;77;20259;-90
2021/08/19 09:56:07;;;;;;;;;;;33.30;77.70;;;;;;1834998;77;20227;-90
2021/08/19 09:58:36;;;;;;;;;;;33.30;77.70;;;;;;1835938;77;20185;-90
2021/08/19 10:01:06;;;;;;;;;;;33.30;77.70;;;;;;1844546;77;20213;-91
2021/08/19 10:03:37;;;;;;;;;;;33.30;77.70;;;;;;1836192;77;20199;-91
2021/08/19 10:06:09;;;;;;;;;;;33.30;77.60;;;;;;1833676;77;20282;-91
2021/08/19 10:08:38;;;;;;;;;;;33.30;77.70;;;;;;1827981;77;20180;-91
2021/08/19 10:11:09;;;;;;;;;;;33.30;77.90;;;;;;1830708;77;20301;-91
2021/08/19 10:13:39;;;;;;;;;;;33.30;77.90;;;;;;1838419;77;20164;-92
2021/08/19 10:16:09;;;;;;;;;;;33.30;78.10;;;;;;1803707;78;20273;-91
2021/08/19 10:18:41;;;;;;;;;;;33.30;78.40;;;;;;1800539;78;20146;-92
2021/08/19 10:21:12;;;;;;;;;;;33.20;78.50;;;;;;1762339;80;20129;-93
2021/08/19 10:23:44;;;;;;;;;;;33.20;78.40;;;;;;1756521;80;20193;-91
2021/08/19 10:26:18;;;;;;;;;;;33.10;78.60;;;;;;1808532;78;20205;-92
2021/08/19 10:28:50;;;;;;;;;;;33.10;78.50;;;;;;1814873;79;20204;-89
2021/08/19 10:31:21;;;;;;;;;;;33.10;78.80;;;;;;1812759;79;20141;-92
2021/08/19 10:33:51;;;;;;;;;;;33.10;79.00;;;;;;1813330;78;20181;-91
2021/08/19 10:36:22;;;;;;;;;;;33.00;78.80;;;;;;1748109;82;20220;-91
2021/08/19 10:38:57;;;;;;;;;;;33.00;79.10;;;;;;1736378;81;20196;-93
2021/08/19 10:41:44;;;;;;;;;;;33.00;79.80;;;;;;1747003;80;20137;-92
2021/08/19 10:44:28;;;;;;;;;;;32.90;80.30;;;;;;1782931;79;20236;-92
2021/08/19 10:47:07;;;;;;;;;;;32.90;79.70;;;;;;1781046;80;20210;-92
2021/08/19 10:49:49;;;;;;;;;;;32.90;80.50;;;;;;1779238;80;20227;-94
2021/08/19 10:52:23;;;;;;;;;;;32.90;80.10;;;;;;1781307;79;20178;-92
2021/08/19 10:54:58;;;;;;;;;;;32.80;81.50;;;;;;1791918;78;20731;-91
2021/08/19 10:57:33;;;;;;;;;;;32.80;80.60;;;;;;1861149;74;20152;-93
2021/08/19 11:00:11;;;;;;;;;;;32.80;80.80;;;;;;1902025;75;20144;-92
2021/08/19 11:03:00;;;;;;;;;;;32.80;81.30;;;;;;1822606;77;20137;-92
2021/08/19 11:08:43;;;;;;;;;;;32.70;81.30;;;;;;1822445;78;20365;-92
2021/08/19 11:14:34;;;;;;;;;;;32.70;81.60;;;;;;1757370;75;20153;-93
2021/08/19 11:17:04;;;;;;;;;;;32.60;82.10;;;;;;1744911;81;20155;-91
2021/08/19 11:19:33;;;;;;;;;;;32.60;81.90;;;;;;1748865;81;20252;-91
2021/08/19 11:22:07;;;;;;;;;;;32.60;82.00;;;;;;1753256;81;20586;-92
2021/08/19 11:24:39;;;;;;;;;;;32.60;82.10;;;;;;1747212;81;20186;-91
2021/08/19 11:27:10;;;;;;;;;;;32.50;82.20;;;;;;1734535;81;20124;-91
2021/08/19 11:29:41;;;;;;;;;;;32.50;82.30;;;;;;1744659;81;20279;-91
2021/08/19 11:32:13;;;;;;;;;;;32.50;82.50;;;;;;1741300;81;20206;-93
2021/08/19 11:34:44;;;;;;;;;;;32.50;82.30;;;;;;1756494;81;20180;-90
2021/08/19 11:37:15;;;;;;;;;;;32.40;82.50;;;;;;1745570;82;20552;-89
2021/08/19 11:39:44;;;;;;;;;;;32.40;82.90;;;;;;1760659;80;20257;-90
2021/08/19 11:42:14;;;;;;;;;;;32.40;82.80;;;;;;1823862;77;20201;-91
2021/08/19 11:44:44;;;;;;;;;;;32.40;83.40;;;;;;1826840;77;20158;-90
2021/08/19 11:47:13;;;;;;;;;;;32.30;84.70;;;;;;1831576;77;20137;-90
2021/08/19 11:49:43;;;;;;;;;;;32.30;84.30;;;;;;1852735;77;20176;-90
2021/08/19 11:52:13;;;;;;;;;;;32.30;84.20;;;;;;1828971;77;20133;-87
2021/08/19 11:54:50;;;;;;;;;;;32.30;84.20;;;;;;1811548;78;20155;-90
2021/08/19 11:57:17;;;;;;;;;;;32.30;84.80;;;;;;1824099;77;20394;-89
2021/08/19 11:59:48;;;;;;;;;;;32.30;84.90;;;;;;1820112;78;20205;-88
2021/08/19 12:02:18;;;;;;;;;;;32.30;84.90;;;;;;1823186;77;20230;-90
2021/08/19 12:04:49;;;;;;;;;;;32.20;84.50;;;;;;1819804;77;20266;-88
2021/08/19 12:07:19;;;;;;;;;;;32.20;84.80;;;;;;1819435;78;20217;-88
2021/08/19 12:09:48;;;;;;;;;;;32.20;86.40;;;;;;1821270;78;20197;-90
2021/08/19 12:12:18;;;;;;;;;;;32.20;86.70;;;;;;1821508;77;20288;-89
2021/08/19 12:14:49;;;;;;;;;;;32.20;86.40;;;;;;1819144;77;20119;-89
2021/08/19 12:17:19;;;;;;;;;;;32.20;85.50;;;;;;1822714;77;20174;-89
2021/08/19 12:19:50;;;;;;;;;;;32.10;85.30;;;;;;1851870;77;20223;-89
2021/08/19 12:22:21;;;;;;;;;;;32.20;86.40;;;;;;1833508;76;20484;-88
2021/08/19 12:24:52;;;;;;;;;;;32.10;87.30;;;;;;1819175;77;20287;-91
2021/08/19 12:27:23;;;;;;;;;;;32.10;81.90;;;;;;1820374;78;20159;-88
2021/08/19 12:29:58;;;;;;;;;;;31.90;81.50;;;;;;1825398;77;20154;-90
2021/08/19 12:32:27;;;;;;;;;;;31.60;80.70;;;;;;1818232;78;20174;-89
2021/08/19 12:34:58;;;;;;;;;;;31.30;81.10;;;;;;1821772;77;20217;-90
2021/08/19 12:37:30;;;;;;;;;;;31.10;81.70;;;;;;1821308;78;20189;-89
2021/08/19 12:40:01;;;;;;;;;;;30.90;81.10;;;;;;1821474;79;20218;-89
2021/08/19 12:42:32;;;;;;;;;;;30.80;79.10;;;;;;1819811;77;20500;-90
2021/08/19 12:45:03;;;;;;;;;;;30.70;79.00;;;;;;1812466;77;20194;-89
2021/08/19 12:47:34;;;;;;;;;;;30.60;79.40;;;;;;1819153;77;20237;-89
2021/08/19 12:50:05;;;;;;;;;;;30.50;79.00;;;;;;1823497;77;20189;-89
2021/08/19 12:52:35;;;;;;;;;;;30.40;80.40;;;;;;1846653;77;20235;-88
2021/08/19 12:55:06;;;;;;;;;;;30.30;79.90;;;;;;1822361;77;20158;-89
2021/08/19 12:57:37;;;;;;;;;;;30.30;80.40;;;;;;1822135;79;20170;-89
2021/08/19 13:00:07;;;;;;;;;;;30.20;81.10;;;;;;1826734;77;20188;-89
2021/08/19 13:02:37;;;;;;;;;;;30.20;81.40;;;;;;1824546;77;20182;-88
2021/08/19 13:05:08;;;;;;;;;;;30.20;82.00;;;;;;1822593;77;20171;-89
2021/08/19 13:07:37;;;;;;;;;;;30.20;82.20;;;;;;1818703;77;20496;-89
2021/08/19 13:10:08;;;;;;;;;;;30.20;82.10;;;;;;1839157;77;20187;-89
2021/08/19 13:12:38;;;;;;;;;;;30.20;82.70;;;;;;1813109;77;20225;-90
2021/08/19 13:15:08;;;;;;;;;;;30.10;82.50;;;;;;1820861;77;20194;-89
2021/08/19 13:17:38;;;;;;;;;;;30.10;83.10;;;;;;1821095;78;20236;-89
2021/08/19 13:20:08;;;;;;;;;;;30.10;84.20;;;;;;1814107;79;20188;-91
2021/08/19 13:22:43;;;;;;;;;;;30.00;85.10;;;;;;1767619;79;20259;-85
2021/08/19 13:25:14;;;;;;;;;;;29.90;85.00;;;;;;1782235;77;20139;-86
2021/08/19 13:27:48;;;;;;;;;;;29.70;84.90;;;;;;1771146;79;20092;-90
2021/08/19 13:30:21;;;;;;;;;;;29.50;85.10;;;;;;1794173;79;20206;-89
2021/08/19 13:32:52;;;;;;;;;;;29.20;86.10;;;;;;1794814;79;20135;-89
2021/08/19 13:35:22;;;;;;;;;;;29.00;86.40;;;;;;1823018;75;20168;-91
2021/08/19 13:37:52;;;;;;;;;;;28.70;85.60;;;;;;1853302;77;20195;-90
2021/08/19 13:40:23;;;;;;;;;;;28.50;85.40;;;;;;1839820;77;20175;-89
2021/08/19 13:42:53;;;;;;;;;;;28.40;85.50;;;;;;1848494;77;20187;-89
2021/08/19 13:45:23;;;;;;;;;;;28.20;86.70;;;;;;1843038;77;20271;-88
2021/08/19 13:47:56;;;;;;;;;;;28.20;87.00;;;;;;1838727;77;20220;-85
2021/08/19 13:50:28;;;;;;;;;;;28.20;85.50;;;;;;1840395;77;20233;-87
2021/08/19 13:52:57;;;;;;;;;;;28.10;85.50;;;;;;1828806;77;20619;-88
2021/08/19 13:55:27;;;;;;;;;;;28.20;86.00;;;;;;1836260;77;20189;-88
2021/08/19 13:57:58;;;;;;;;;;;28.30;86.10;;;;;;1837283;77;20164;-89
2021/08/19 14:00:28;;;;;;;;;;;28.30;86.30;;;;;;1846429;77;20269;-89
2021/08/19 14:03:04;;;;;;;;;;;28.30;86.80;;;;;;1837930;77;20245;-89
2021/08/19 14:05:33;;;;;;;;;;;28.30;87.60;;;;;;1842508;77;20230;-88
2021/08/19 14:08:03;;;;;;;;;;;28.30;87.90;;;;;;1840301;77;20245;-89
2021/08/19 14:10:35;;;;;;;;;;;28.40;87.80;;;;;;1839385;77;20213;-88
2021/08/19 14:13:06;;;;;;;;;;;28.50;87.40;;;;;;1844191;77;20178;-89
2021/08/19 14:15:36;;;;;;;;;;;28.50;86.20;;;;;;1832670;77;20261;-89
2021/08/19 14:18:07;;;;;;;;;;;28.40;86.40;;;;;;1836826;77;20183;-89
2021/08/19 14:20:40;;;;;;;;;;;28.40;86.10;;;;;;1885538;74;20126;-90
2021/08/19 14:23:10;;;;;;;;;;;28.50;86.20;;;;;;1881324;75;20165;-89
2021/08/19 14:26:05;;;;;;;;;;;28.50;85.90;;;;;;1899956;75;20205;-89
2021/08/19 14:28:22;;;;;;;;;;;28.50;85.70;;;;;;1903274;75;20125;-89
2021/08/19 14:30:52;;;;;;;;;;;28.50;86.20;;;;;;1904800;74;20258;-90
2021/08/19 14:33:22;;;;;;;;;;;28.60;86.20;;;;;;1910370;73;20172;-90
2021/08/19 14:35:52;;;;;;;;;;;28.60;85.60;;;;;;1913572;75;20198;-89
2021/08/19 14:38:23;;;;;;;;;;;28.50;86.00;;;;;;1902622;75;20171;-89
2021/08/19 14:40:52;;;;;;;;;;;28.60;85.80;;;;;;1908942;75;20259;-90
2021/08/19 14:43:22;;;;;;;;;;;28.60;85.50;;;;;;1909224;75;20266;-91
2021/08/19 14:45:52;;;;;;;;;;;28.60;85.10;;;;;;1886592;76;20195;-90
2021/08/19 14:48:22;;;;;;;;;;;28.60;85.50;;;;;;1899069;75;20211;-89
2021/08/19 14:50:59;;;;;;;;;;;28.60;85.30;;;;;;1887282;76;20181;-90
2021/08/19 14:53:30;;;;;;;;;;;28.50;85.30;;;;;;1888849;75;20193;-89
2021/08/19 14:59:12;;;;;;;;;;;28.50;84.90;;;;;;1907478;74;20177;-87
2021/08/19 15:01:43;;;;;;;;;;;28.50;84.90;;;;;;1912260;75;20254;-88
2021/08/19 15:04:25;;;;;;;;;;;28.50;85.10;;;;;;1919051;74;20183;-89
2021/08/19 15:06:51;;;;;;;;;;;28.40;84.80;;;;;;1910255;74;20190;-89
2021/08/19 15:09:21;;;;;;;;;;;28.40;84.40;;;;;;1896645;75;20198;-88
2021/08/19 15:11:51;;;;;;;;;;;28.40;83.40;;;;;;1895064;75;20128;-88
2021/08/19 15:14:31;;;;;;;;;;;28.40;84.10;;;;;;1901692;75;20194;-88
2021/08/19 15:17:03;;;;;;;;;;;28.30;84.30;;;;;;1872232;76;20506;-87
2021/08/19 15:19:32;;;;;;;;;;;28.40;84.60;;;;;;1890503;74;20195;-88
2021/08/19 15:22:04;;;;;;;;;;;28.40;84.50;;;;;;1911627;74;20229;-89
2021/08/19 15:24:33;;;;;;;;;;;28.40;84.10;;;;;;1908524;75;20209;-88
2021/08/19 15:27:03;;;;;;;;;;;28.40;84.00;;;;;;1857521;73;20184;-89
2021/08/19 15:29:33;;;;;;;;;;;28.30;83.40;;;;;;1820302;78;20251;-88
2021/08/19 15:32:06;;;;;;;;;;;28.30;83.60;;;;;;1828129;77;20201;-87
2021/08/19 15:34:34;;;;;;;;;;;28.40;83.70;;;;;;1818422;77;20195;-89
2021/08/19 15:37:05;;;;;;;;;;;28.50;83.60;;;;;;1807345;77;20249;-88
2021/08/19 15:39:35;;;;;;;;;;;28.50;83.80;;;;;;1821665;79;20170;-89
2021/08/19 15:42:06;;;;;;;;;;;28.60;83.20;;;;;;1824904;77;20196;-89
2021/08/19 15:44:47;;;;;;;;;;;28.60;82.90;;;;;;1817108;79;20254;-88
2021/08/19 15:47:18;;;;;;;;;;;28.60;83.30;;;;;;1806159;79;20217;-88
2021/08/19 15:49:48;;;;;;;;;;;28.60;83.00;;;;;;1821931;77;20195;-88
2021/08/19 15:52:19;;;;;;;;;;;28.60;83.20;;;;;;1795426;78;20440;-87
2021/08/19 15:54:49;;;;;;;;;;;28.60;83.00;;;;;;1789657;78;20212;-89